Gütersloh, Deutschland

06:23 AM CEST am 29. März 2015 (GMT +0200)
GT-Pavenstaedt | | Change Station
CLOSE
Current Station
Persönliche Wetterstationen
Location: Gütersloh, NORDRHEIN-WESTFALEN
Höhe: 240 ft
Wetterstationen in der Umgebung

Höhe 240 ft 51.91 °N, 8.35 °E | Updated 18 seconds ago

Mostly Cloudy
Wolkig
51.8 °F
gefühlte 51.8 °F
N
2.0
Wind Wechselnd Wind aus Südost
Gusts 4.9 mph

Heute
Max. -- | schwach -- °F
--% Regenrisiko
Gestern
Max. -- | schwach -- °F
Precip. -- inch
7:09 AM 7:54 PM
Zweites Viertel, 68% visible
Druck 29.65 inch
Sichtweite 6.2 Meilen
Wolken Teils Wolkig 2300 ft
Wolkig 4000 ft
Taupunkt 45 °F
Feuchtigkeit 78%
Regen 0.04 inch
Schneehöhe Nicht verfügbar..
UV 0.0 von 12
Pollen Nicht verfügbar..
Luftqualität Nicht verfügbar..
Flu Activity Nicht verfügbar..
METAR EDLP 290420Z 24015KT 9999 SCT023 BKN040 10/04 Q1004 RMK ATIS DEL

More Conditions Fewer Conditions

Druck 29.65 inch
Sichtweite 6.2 Meilen
Wolken Teils Wolkig 2300 ft
Wolkig 4000 ft
Taupunkt 45 °F
Feuchtigkeit 78%
Regen 0.04 inch
Schneehöhe Nicht verfügbar..
UV 0.0 von 12
Pollen Nicht verfügbar..
Luftqualität Nicht verfügbar..
Flu Activity Nicht verfügbar..
METAR EDLP 290420Z 24015KT 9999 SCT023 BKN040 10/04 Q1004 RMK ATIS DEL

More Conditions Fewer Conditions

10-Day Weather Forecast

Almanac

Astronomie

Mar. 29, 2015 Aufgang Untergang
Genaue Zeit
Bürgerliche Dämmerung
Nautische Dämmerung
Astronomische Dämmerung
Mond
Länge des sichtbaren Lichts
Tageslänge
Tomorrow will be .
, % of the Moon is Illuminated

Heutige Rekorde

Country Highs Country Lows

Community

WunderPhotos

Upload Photos

1,809,185 Fotos hochgeladen!

WunderBlogs® & News

Nearby

Luftqualität

  Luftqualität LQ Index Schadstoff
Not available.

Schneehöhe

Station Depth Höhe

Erdbebenaktivität

Stadt Distance Mag. Time & Date
Minimum magnitude displayed is 2.5.

küstennahe Wassertemperaturen

Ort Temperatur

Stations

Wetterstationen in der Umgebung

Stationsstandort Temp. Windchill Taupunkt Feuchtigkeit Wind Precip. Höhe Aktualisiert Art